Time;durP1;ratioP1;P1;durP2;ratioP2;P2;SDS_P1;SDS_P2;PMS_P1;PMS_P2;Temp;Humidity;BMP_temperature;BMP_pressure;BME280_temperature;BME280_humidity;BME280_pressure;Samples;Min_cycle;Max_cycle;Signal;HPM_P1;HPM_P2
2022/04/05 11:31:02;;;;;;;16.60;11.38;;;11.10;99.90;;;;;;6422361;22;20001;-92
2022/04/05 11:33:31;;;;;;;14.20;10.15;;;11.10;99.90;;;;;;6308202;22;20039;-93
2022/04/05 11:36:03;;;;;;;17.35;11.23;;;11.00;99.90;;;;;;6309380;22;20070;-91
2022/04/05 11:38:32;;;;;;;13.43;9.85;;;11.10;99.90;;;;;;6335727;22;19999;-92
2022/04/05 11:41:09;;;;;;;13.07;9.80;;;11.10;99.90;;;;;;6309712;22;20007;-94
2022/04/05 11:43:44;;;;;;;17.25;10.65;;;11.20;99.90;;;;;;6309756;22;20010;-93
2022/04/05 11:46:25;;;;;;;13.80;9.75;;;11.30;99.90;;;;;;6335398;22;19995;-93
2022/04/05 11:48:55;;;;;;;13.52;10.90;;;11.40;99.90;;;;;;6309232;22;20044;-93
2022/04/05 11:51:34;;;;;;;17.48;10.75;;;11.40;99.90;;;;;;6333797;22;20078;-92
2022/04/05 11:54:03;;;;;;;16.65;10.45;;;11.40;99.90;;;;;;6333810;22;19995;-93
2022/04/05 11:56:28;;;;;;;14.68;10.25;;;11.40;99.90;;;;;;6309591;22;20006;-92
2022/04/05 11:58:57;;;;;;;13.52;10.07;;;11.30;99.90;;;;;;6335204;22;19996;-91
2022/04/05 12:01:32;;;;;;;15.88;11.05;;;11.30;99.90;;;;;;6334828;22;20014;-94
2022/04/05 12:04:10;;;;;;;13.63;10.38;;;11.40;99.90;;;;;;6320199;22;20030;-93
2022/04/05 12:06:40;;;;;;;16.70;11.90;;;11.50;99.90;;;;;;6315866;22;20004;-94
2022/04/05 12:09:22;;;;;;;14.43;12.00;;;11.60;99.90;;;;;;6315153;22;20314;-93
2022/04/05 12:11:58;;;;;;;17.02;11.45;;;11.50;99.90;;;;;;6321762;22;20007;-91
2022/04/05 12:14:28;;;;;;;15.75;11.95;;;11.50;99.90;;;;;;6324748;22;20030;-93
2022/04/05 12:17:21;;;;;;;13.77;11.15;;;11.60;99.90;;;;;;6357175;22;20002;-93
2022/04/05 12:19:53;;;;;;;14.88;11.48;;;11.70;99.90;;;;;;6325178;22;20110;-93
2022/04/05 12:22:19;;;;;;;14.80;11.07;;;12.00;99.90;;;;;;6346323;22;20014;-94
2022/04/05 12:24:54;;;;;;;17.27;12.10;;;12.30;99.90;;;;;;6350750;22;20325;-93
2022/04/05 12:27:28;;;;;;;13.65;10.75;;;12.70;99.90;;;;;;6348935;22;20041;-92
2022/04/05 12:29:59;;;;;;;12.90;9.48;;;12.90;99.90;;;;;;6349486;22;20071;-93
2022/04/05 12:32:24;;;;;;;12.60;8.68;;;12.80;99.90;;;;;;6347824;22;20385;-93
2022/04/05 12:34:52;;;;;;;12.52;9.02;;;12.70;99.90;;;;;;6348879;22;20001;-91
2022/04/05 12:37:18;;;;;;;9.18;7.30;;;12.60;99.90;;;;;;6347663;22;20003;-93
2022/04/05 12:39:45;;;;;;;12.73;8.88;;;12.50;99.90;;;;;;6347848;22;20013;-92
2022/04/05 12:42:12;;;;;;;25.33;10.15;;;12.40;99.90;;;;;;6347841;22;20014;-92
2022/04/05 12:44:40;;;;;;;11.63;8.27;;;12.20;99.90;;;;;;6348820;22;20063;-93
2022/04/05 12:47:15;;;;;;;10.88;8.18;;;12.00;99.90;;;;;;6349449;22;19999;-93
2022/04/05 12:49:48;;;;;;;14.02;11.30;;;11.80;99.90;;;;;;6354517;22;20082;-92
2022/04/05 12:52:28;;;;;;;14.68;12.73;;;11.60;99.90;;;;;;6349014;22;20004;-92
2022/04/05 12:55:04;;;;;;;15.07;13.48;;;11.50;99.90;;;;;;6348251;22;20006;-93
2022/04/05 12:57:35;;;;;;;14.80;13.25;;;11.40;99.90;;;;;;6348811;22;20336;-93
2022/04/05 13:00:16;;;;;;;15.90;13.95;;;11.30;99.90;;;;;;6349425;22;20002;-92
2022/04/05 13:03:13;;;;;;;18.63;16.17;;;11.30;99.90;;;;;;6353937;22;20015;-92
2022/04/05 13:08:35;;;;;;;17.35;15.13;;;11.20;99.90;;;;;;6377489;22;20099;-94
2022/04/05 13:11:01;;;;;;;16.02;14.43;;;11.20;99.90;;;;;;6347794;22;20317;-94
2022/04/05 13:13:39;;;;;;;16.67;14.90;;;11.20;99.90;;;;;;6345510;22;20014;-91
2022/04/05 13:29:07;;;;;;;17.65;15.38;;;11.60;99.90;;;;;;6335679;22;20026;-94
2022/04/05 13:31:34;;;;;;;16.60;15.00;;;11.70;99.90;;;;;;6293484;22;20522;-93
2022/04/05 13:34:00;;;;;;;17.58;14.95;;;11.70;99.90;;;;;;6353918;22;20073;-92
2022/04/05 13:36:27;;;;;;;15.75;14.07;;;11.70;99.90;;;;;;6321714;22;20014;-93
2022/04/05 13:38:52;;;;;;;15.32;13.27;;;11.70;99.90;;;;;;6328267;22;20310;-93
2022/04/05 13:41:18;;;;;;;14.60;13.02;;;11.60;99.90;;;;;;6329804;22;20024;-92
2022/04/05 13:43:45;;;;;;;15.00;13.07;;;11.50;99.90;;;;;;6320150;22;20068;-94
2022/04/05 13:46:12;;;;;;;15.10;13.50;;;11.50;99.90;;;;;;6347010;22;20409;-91
2022/04/05 13:48:38;;;;;;;13.50;12.20;;;11.50;99.90;;;;;;6317419;22;20059;-92
2022/04/05 13:51:04;;;;;;;14.32;12.82;;;11.40;99.90;;;;;;6316047;22;20009;-95
2022/04/05 13:53:30;;;;;;;16.42;14.27;;;11.30;99.90;;;;;;6315984;22;19998;-94
2022/04/05 13:55:57;;;;;;;16.00;14.40;;;11.30;99.90;;;;;;6315353;22;20003;-93
2022/04/05 13:58:22;;;;;;;16.30;14.55;;;11.30;99.90;;;;;;6314754;22;20003;-93
2022/04/05 14:00:48;;;;;;;15.20;13.68;;;11.40;99.90;;;;;;6315870;22;20014;-94
2022/04/05 14:03:14;;;;;;;15.65;14.05;;;11.40;99.90;;;;;;6313604;22;20042;-94
2022/04/05 14:05:40;;;;;;;14.32;12.88;;;11.30;99.90;;;;;;6314285;22;19999;-94
2022/04/05 14:08:06;;;;;;;15.18;13.68;;;11.30;99.90;;;;;;6314257;22;20021;-94
2022/04/05 14:10:32;;;;;;;14.82;13.43;;;11.20;99.90;;;;;;6315397;22;20006;-94
2022/04/05 14:12:58;;;;;;;16.55;14.80;;;11.20;99.90;;;;;;6316164;22;20011;-94
2022/04/05 14:15:24;;;;;;;16.25;14.65;;;11.10;99.90;;;;;;6316603;22;20036;-94
2022/04/05 14:17:49;;;;;;;16.35;14.57;;;11.20;99.90;;;;;;6316080;22;19998;-93
2022/04/05 14:20:15;;;;;;;17.05;15.23;;;11.30;99.90;;;;;;6322089;22;19999;-94
2022/04/05 14:22:42;;;;;;;16.92;15.23;;;11.40;99.90;;;;;;6332074;22;20036;-94
2022/04/05 14:25:09;;;;;;;17.08;15.27;;;11.60;99.90;;;;;;6331043;22;20003;-93
2022/04/05 14:31:05;;;;;;;16.60;14.85;;;11.70;99.90;;;;;;6321147;22;20026;-92
2022/04/05 14:33:38;;;;;;;18.00;16.23;;;11.60;99.90;;;;;;6377808;22;20018;-91
2022/04/05 14:36:19;;;;;;;17.65;15.63;;;11.70;99.90;;;;;;6360840;22;20010;-95
2022/04/05 14:38:50;;;;;;;16.73;15.13;;;11.60;99.90;;;;;;6336434;22;19995;-94
2022/04/05 17:04:47;;;;;;;24.25;17.20;;;10.60;99.90;;;;;;6245075;22;20071;-92
2022/04/05 17:07:13;;;;;;;24.42;17.75;;;10.60;99.90;;;;;;6264545;22;20073;-90
2022/04/05 17:09:39;;;;;;;23.15;17.38;;;10.60;99.90;;;;;;6266041;22;20011;-91
2022/04/05 17:14:37;;;;;;;23.50;16.98;;;10.50;99.90;;;;;;6202761;23;20021;-91
2022/04/05 17:17:13;;;;;;;23.75;17.13;;;10.50;99.90;;;;;;6206113;22;20017;-93
2022/04/05 17:22:17;;;;;;;21.95;17.45;;;10.50;99.90;;;;;;6262908;22;20031;-91
2022/04/05 17:24:43;;;;;;;24.38;16.23;;;10.50;99.90;;;;;;6290024;22;20011;-90
2022/04/05 17:27:21;;;;;;;21.30;16.42;;;10.50;99.90;;;;;;6216745;22;20012;-94
2022/04/05 17:29:49;;;;;;;21.67;16.17;;;10.50;99.90;;;;;;6218642;22;20080;-96
2022/04/05 17:32:16;;;;;;;22.02;16.63;;;10.50;99.90;;;;;;6256440;23;20012;-91
2022/04/05 17:34:46;;;;;;;24.13;15.48;;;10.50;99.90;;;;;;6272176;22;20090;-91
2022/04/05 17:37:12;;;;;;;21.92;16.30;;;10.50;99.90;;;;;;6292523;22;20034;-92
2022/04/05 20:49:08;;;;;;;24.77;15.65;;;9.50;99.90;;;;;;6103381;23;20026;-94
2022/04/05 20:51:37;;;;;;;28.13;15.52;;;9.50;99.90;;;;;;6099654;23;20331;-95
2022/04/05 20:54:06;;;;;;;26.65;16.27;;;9.60;99.90;;;;;;6102448;23;20619;-94
2022/04/05 20:56:37;;;;;;;24.83;15.80;;;9.60;99.90;;;;;;6100387;23;20354;-95
2022/04/05 20:59:06;;;;;;;28.13;15.63;;;9.70;99.90;;;;;;6104254;23;20097;-96
2022/04/05 21:01:34;;;;;;;28.25;16.33;;;9.70;99.90;;;;;;6100437;23;20034;-96
2022/04/05 21:04:01;;;;;;;28.77;17.17;;;9.70;99.90;;;;;;6102810;23;20023;-95
2022/04/05 21:06:32;;;;;;;31.40;16.75;;;9.70;99.90;;;;;;6106296;23;20010;-96
2022/04/05 21:09:11;;;;;;;29.00;16.55;;;9.70;99.90;;;;;;6103246;23;20492;-94
2022/04/05 21:11:58;;;;;;;28.30;16.52;;;9.70;99.90;;;;;;6102760;23;20058;-95
2022/04/05 21:14:23;;;;;;;32.90;17.27;;;9.70;99.90;;;;;;6101937;23;20075;-93
2022/04/05 21:16:52;;;;;;;27.77;16.98;;;9.70;99.90;;;;;;6104120;23;20006;-96
2022/04/05 21:19:43;;;;;;;26.27;16.50;;;9.70;99.90;;;;;;6107580;23;20106;-95
2022/04/05 21:22:26;;;;;;;24.70;14.75;;;9.70;99.90;;;;;;6163703;22;20036;-95
2022/04/05 21:24:52;;;;;;;31.25;17.08;;;9.80;99.90;;;;;;6234087;22;20004;-94
2022/04/05 21:27:21;;;;;;;30.40;15.70;;;9.70;99.90;;;;;;6283808;22;20454;-95
2022/04/05 21:30:11;;;;;;;26.92;16.33;;;9.70;99.90;;;;;;6284275;22;20004;-96
2022/04/05 21:32:39;;;;;;;26.70;15.23;;;9.70;99.90;;;;;;6280198;22;20018;-94
2022/04/05 21:35:27;;;;;;;26.85;15.95;;;9.70;99.90;;;;;;6288846;22;20007;-95
2022/04/05 21:38:00;;;;;;;27.52;16.00;;;9.70;99.90;;;;;;6291947;22;20015;-94
2022/04/05 21:40:38;;;;;;;33.45;15.93;;;9.60;99.90;;;;;;6289031;22;20003;-95
2022/04/05 21:43:30;;;;;;;30.13;15.98;;;9.60;99.90;;;;;;6294681;22;20015;-95
2022/04/05 21:46:14;;;;;;;29.95;16.85;;;9.60;99.90;;;;;;6294600;22;20003;-95
2022/04/05 21:48:43;;;;;;;25.90;15.45;;;9.60;99.90;;;;;;6324151;22;20019;-95
2022/04/05 21:51:14;;;;;;;25.67;16.13;;;9.60;99.90;;;;;;6344992;22;20029;-95
2022/04/05 21:54:13;;;;;;;29.38;15.45;;;9.60;99.90;;;;;;6322586;22;20017;-94
2022/04/05 21:56:58;;;;;;;29.73;17.33;;;9.60;99.90;;;;;;6364868;22;20010;-96
2022/04/05 21:59:39;;;;;;;31.33;17.73;;;9.50;99.90;;;;;;6337981;22;19995;-96
2022/04/05 22:02:23;;;;;;;44.45;20.67;;;9.60;99.90;;;;;;6340913;22;20013;-95
